createdAt,value
2019-02-25T09:07:36.977Z,99493.20
2019-02-25T09:10:13.455Z,99495.80
2019-02-25T09:12:48.845Z,99502.41
2019-02-25T09:15:23.203Z,99503.36
2019-02-25T09:17:54.492Z,99509.91
2019-02-25T09:20:26.048Z,99509.43
2019-02-25T09:22:58.231Z,99504.62
2019-02-25T09:36:17.239Z,99486.49
2019-02-25T09:38:50.939Z,99490.67
2019-02-25T09:41:29.665Z,99491.64
2019-02-25T09:43:55.861Z,99494.11
2019-02-25T09:46:27.566Z,99486.70
2019-02-25T09:48:59.101Z,99490.36
2019-02-25T09:51:30.306Z,99478.22
2019-02-25T09:54:02.545Z,99456.10
2019-02-25T09:56:37.335Z,99447.63
2019-02-25T09:59:09.058Z,99457.61
2019-02-25T10:01:42.726Z,99435.67
2019-02-25T10:04:13.951Z,99453.98
2019-02-25T10:06:45.461Z,99441.59
2019-02-25T10:09:18.129Z,99427.02
2019-02-25T10:11:50.073Z,99433.34
2019-02-25T10:14:21.910Z,99433.16
2019-02-25T10:16:54.613Z,99413.14
2019-02-25T10:19:28.377Z,99421.13
2019-02-25T10:22:02.820Z,99415.99
2019-02-25T10:24:34.001Z,99408.48
2019-02-25T10:27:06.315Z,99406.53
2019-02-25T10:29:39.559Z,99399.47
2019-02-25T10:32:10.839Z,99399.87
2019-02-25T10:34:42.429Z,99391.63
2019-02-25T10:37:15.615Z,99385.84
2019-02-25T10:39:51.471Z,99383.06
2019-02-25T10:42:24.697Z,99385.84
2019-02-25T10:44:57.270Z,99382.68
2019-02-25T10:47:39.252Z,99381.31
2019-02-25T10:50:12.348Z,99384.81
2019-02-25T10:52:48.938Z,99377.27
2019-02-25T10:55:29.305Z,99376.96
2019-02-25T10:58:02.011Z,99372.94
2019-02-25T11:00:37.792Z,99373.20
2019-02-25T11:03:13.654Z,99376.56
2019-02-25T11:05:45.802Z,99368.95
2019-02-25T11:08:19.789Z,99373.75
2019-02-25T11:11:16.207Z,99371.55
2019-02-25T11:13:47.720Z,99362.28
2019-02-25T11:16:21.840Z,99352.88
2019-02-25T11:18:55.097Z,99361.05
2019-02-25T11:21:27.674Z,99361.13
2019-02-25T11:24:03.848Z,99355.20
2019-02-25T11:26:36.295Z,99356.78
2019-02-25T11:29:13.792Z,99347.75
2019-02-25T11:31:56.281Z,99349.64
2019-02-25T11:34:33.672Z,99344.22
2019-02-25T11:37:05.994Z,99339.92
2019-02-25T11:39:37.724Z,99331.80
2019-02-25T11:42:12.971Z,99329.39
2019-02-25T11:44:43.895Z,99324.22
2019-02-25T11:47:16.814Z,99315.66
2019-02-25T11:49:50.792Z,99317.16
2019-02-25T11:52:21.814Z,99309.41
2019-02-25T11:54:54.970Z,99304.94
2019-02-25T11:57:29.694Z,99303.32
2019-02-25T12:00:03.257Z,99299.73
2019-02-25T12:02:35.424Z,99304.77
2019-02-25T12:05:11.967Z,99295.05
2019-02-25T12:07:43.179Z,99284.27
2019-02-25T12:10:18.073Z,99279.63
2019-02-25T12:12:49.779Z,99287.36
2019-02-25T12:15:25.205Z,99277.93
2019-02-25T12:17:57.881Z,99273.55
2019-02-25T12:20:30.799Z,99261.72
2019-02-25T12:23:02.099Z,99267.44
2019-02-25T12:25:35.786Z,99269.45
2019-02-25T12:28:10.100Z,99260.24
2019-02-25T12:30:42.608Z,99249.66
2019-02-25T12:33:14.202Z,99249.00
2019-02-25T12:35:50.695Z,99245.75
2019-02-25T12:38:24.420Z,99245.66
2019-02-25T12:40:57.226Z,99242.00
2019-02-25T12:43:30.167Z,99238.18
2019-02-25T12:46:04.881Z,99233.55
2019-02-25T12:48:38.072Z,99233.09
2019-02-25T12:51:12.647Z,99220.42
2019-02-25T12:53:45.447Z,99213.45
2019-02-25T12:56:17.473Z,99214.09
2019-02-25T12:58:52.415Z,99212.61
2019-02-25T13:01:24.500Z,99207.97
2019-02-25T13:03:55.955Z,99194.07
2019-02-25T13:06:30.221Z,99195.66
2019-02-25T13:09:07.476Z,99186.19
2019-02-25T13:11:41.515Z,99185.89
2019-02-25T13:14:15.639Z,99179.63
2019-02-25T13:16:47.072Z,99172.90
2019-02-25T13:19:20.307Z,99170.06
2019-02-25T13:21:55.306Z,99156.42
2019-02-25T13:24:30.307Z,99169.35
2019-02-25T13:27:03.179Z,99161.74
2019-02-25T13:29:35.751Z,99153.99
2019-02-25T13:32:07.202Z,99150.71
2019-02-25T13:34:39.112Z,99153.03
2019-02-25T13:37:15.450Z,99156.91
2019-02-25T13:39:49.488Z,99152.11
2019-02-25T13:42:23.047Z,99148.19
2019-02-25T13:44:54.656Z,99139.95
2019-02-25T13:47:27.418Z,99141.08
2019-02-25T13:50:00.385Z,99134.39
2019-02-25T13:52:33.231Z,99126.91
2019-02-25T13:55:08.177Z,99129.81
2019-02-25T13:57:40.762Z,99121.90
2019-02-25T14:00:22.984Z,99120.30
2019-02-25T14:02:54.434Z,99108.70
2019-02-25T14:05:27.255Z,99109.58
2019-02-25T14:08:00.236Z,99100.66
2019-02-25T14:10:31.776Z,99102.51
2019-02-25T14:13:06.534Z,99095.95
2019-02-25T14:15:40.126Z,99098.89
2019-02-25T14:18:12.961Z,99096.33
2019-02-25T14:20:44.344Z,99092.97
2019-02-25T14:23:16.183Z,99086.53
2019-02-25T14:25:48.875Z,99088.59
2019-02-25T14:28:20.506Z,99088.05
2019-02-25T14:30:53.388Z,99080.27
2019-02-25T14:33:25.700Z,99086.98
2019-02-25T14:35:58.145Z,99084.77
2019-02-25T14:38:31.730Z,99083.20
2019-02-25T14:41:04.674Z,99082.62
2019-02-25T14:43:41.718Z,99088.78
2019-02-25T14:46:11.887Z,99082.52
2019-02-25T14:48:43.465Z,99079.86
2019-02-25T14:51:14.891Z,99074.18
2019-02-25T14:53:48.901Z,99075.47
2019-02-25T14:56:21.016Z,99073.39
2019-02-25T14:58:52.692Z,99063.52
2019-02-25T15:01:25.688Z,99063.30
2019-02-25T15:04:00.215Z,99058.67
2019-02-25T15:06:36.355Z,99059.65
2019-02-25T15:09:09.677Z,99061.53
2019-02-25T15:11:47.891Z,99061.38
2019-02-25T15:14:19.282Z,98964.77
2019-02-25T15:16:52.178Z,99052.64
2019-02-25T15:19:24.287Z,99046.28
2019-02-25T15:22:00.843Z,99040.79
2019-02-25T15:24:32.215Z,99040.91
2019-02-25T15:27:09.314Z,99040.26
2019-02-25T15:29:44.750Z,99032.37
2019-02-25T15:32:21.288Z,99038.20
2019-02-25T15:34:55.038Z,99043.98
2019-02-25T15:37:27.825Z,99046.91
2019-02-25T15:40:05.228Z,99040.19
2019-02-25T15:42:38.390Z,99034.42
2019-02-25T15:45:26.710Z,99036.56
2019-02-25T15:47:57.689Z,99039.23
2019-02-25T15:50:30.769Z,99031.03
2019-02-25T15:53:05.569Z,99033.55
2019-02-25T15:55:41.172Z,99029.53
2019-02-25T15:58:14.780Z,99024.30
2019-02-25T16:00:47.967Z,99031.42
2019-02-25T16:03:21.424Z,99023.81
2019-02-25T16:05:57.813Z,99023.19
2019-02-25T16:08:31.114Z,99031.81
2019-02-25T16:11:05.035Z,99021.42
2019-02-25T16:13:37.831Z,99026.92
2019-02-25T16:16:10.341Z,99014.42
2019-02-25T16:18:44.617Z,99020.39
2019-02-25T16:21:17.563Z,99012.14
2019-02-25T16:23:50.618Z,99013.22
2019-02-25T16:26:22.197Z,99007.58
2019-02-25T16:28:58.899Z,99010.86
2019-02-25T16:31:33.609Z,99020.91
2019-02-25T16:34:09.958Z,99006.53
2019-02-25T16:36:41.914Z,99009.46
2019-02-25T16:39:16.833Z,99004.64
2019-02-25T16:41:50.314Z,98996.19
2019-02-25T16:44:21.678Z,98998.98
2019-02-25T16:46:58.986Z,98991.97
2019-02-25T16:49:33.918Z,98989.19
2019-02-25T16:52:07.895Z,98988.16
2019-02-25T16:54:41.745Z,98993.03
2019-02-25T16:57:14.186Z,98989.64
2019-02-25T16:59:53.335Z,98993.48
2019-02-25T17:02:27.510Z,98998.86
2019-02-25T17:04:59.237Z,99000.38
2019-02-25T17:07:31.495Z,98991.53
2019-02-25T17:10:03.630Z,98975.75
2019-02-25T17:12:41.063Z,98990.86
2019-02-25T17:15:18.963Z,98997.48
2019-02-25T17:18:00.351Z,98976.30
2019-02-25T17:20:34.825Z,98979.58
2019-02-25T17:23:10.094Z,98963.00
2019-02-25T17:25:43.707Z,98959.31
2019-02-25T17:28:20.245Z,98968.39
2019-02-25T17:30:53.186Z,98960.05
2019-02-25T17:33:30.483Z,98957.17
2019-02-25T17:36:07.605Z,98955.37
2019-02-25T17:38:45.392Z,98944.72
2019-02-25T17:41:20.297Z,98948.17
2019-02-25T17:43:51.709Z,98945.46
2019-02-25T17:46:23.996Z,98934.34
2019-02-25T17:48:58.291Z,98936.41
2019-02-25T17:51:32.554Z,98943.21
2019-02-25T17:54:07.629Z,98941.13
2019-02-25T17:56:47.473Z,98947.94
